sensor_id;sensor_type;location;lat;lon;timestamp;P1;durP1;ratioP1;P2;durP2;ratioP2
80245;SDS011;69558;39.208;-77.226;2023-07-20T00:02:21;1.73;;;0.95;;
80245;SDS011;69558;39.208;-77.226;2023-07-20T00:04:47;2.10;;;1.00;;
80245;SDS011;69558;39.208;-77.226;2023-07-20T00:07:13;2.03;;;0.98;;
80245;SDS011;69558;39.208;-77.226;2023-07-20T00:09:39;2.90;;;1.50;;
80245;SDS011;69558;39.208;-77.226;2023-07-20T00:12:06;1.55;;;1.08;;
80245;SDS011;69558;39.208;-77.226;2023-07-20T00:14:33;2.47;;;1.30;;
80245;SDS011;69558;39.208;-77.226;2023-07-20T00:16:59;2.53;;;0.93;;
80245;SDS011;69558;39.208;-77.226;2023-07-20T00:19:25;2.53;;;1.08;;
80245;SDS011;69558;39.208;-77.226;2023-07-20T00:24:19;2.28;;;1.08;;
80245;SDS011;69558;39.208;-77.226;2023-07-20T00:26:45;2.53;;;1.48;;
80245;SDS011;69558;39.208;-77.226;2023-07-20T00:29:12;2.35;;;1.48;;
80245;SDS011;69558;39.208;-77.226;2023-07-20T00:31:38;1.60;;;0.80;;
80245;SDS011;69558;39.208;-77.226;2023-07-20T00:34:05;2.17;;;1.40;;
80245;SDS011;69558;39.208;-77.226;2023-07-20T00:36:31;2.63;;;0.80;;
80245;SDS011;69558;39.208;-77.226;2023-07-20T00:38:57;1.17;;;0.60;;
80245;SDS011;69558;39.208;-77.226;2023-07-20T00:41:23;2.15;;;0.90;;
80245;SDS011;69558;39.208;-77.226;2023-07-20T00:43:49;2.13;;;1.08;;
80245;SDS011;69558;39.208;-77.226;2023-07-20T00:46:16;2.38;;;1.10;;
80245;SDS011;69558;39.208;-77.226;2023-07-20T00:48:42;1.73;;;0.80;;
80245;SDS011;69558;39.208;-77.226;2023-07-20T00:51:08;1.90;;;0.90;;
80245;SDS011;69558;39.208;-77.226;2023-07-20T00:53:36;2.47;;;1.42;;
80245;SDS011;69558;39.208;-77.226;2023-07-20T00:56:02;2.10;;;1.15;;
80245;SDS011;69558;39.208;-77.226;2023-07-20T00:58:29;2.03;;;0.98;;
80245;SDS011;69558;39.208;-77.226;2023-07-20T01:00:55;2.55;;;1.15;;
80245;SDS011;69558;39.208;-77.226;2023-07-20T01:03:21;2.72;;;1.42;;
80245;SDS011;69558;39.208;-77.226;2023-07-20T01:06:02;1.70;;;0.85;;
80245;SDS011;69558;39.208;-77.226;2023-07-20T01:08:32;2.70;;;1.08;;
80245;SDS011;69558;39.208;-77.226;2023-07-20T01:14:18;2.53;;;0.98;;
80245;SDS011;69558;39.208;-77.226;2023-07-20T01:16:47;2.30;;;1.00;;
80245;SDS011;69558;39.208;-77.226;2023-07-20T01:19:16;2.15;;;1.10;;
80245;SDS011;69558;39.208;-77.226;2023-07-20T01:21:46;2.78;;;1.63;;
80245;SDS011;69558;39.208;-77.226;2023-07-20T01:24:27;1.73;;;0.80;;
80245;SDS011;69558;39.208;-77.226;2023-07-20T01:32:51;1.95;;;0.98;;
80245;SDS011;69558;39.208;-77.226;2023-07-20T01:35:23;2.28;;;1.20;;
80245;SDS011;69558;39.208;-77.226;2023-07-20T01:37:55;2.88;;;1.17;;
80245;SDS011;69558;39.208;-77.226;2023-07-20T01:40:23;2.08;;;1.00;;
80245;SDS011;69558;39.208;-77.226;2023-07-20T01:42:51;2.60;;;1.27;;
80245;SDS011;69558;39.208;-77.226;2023-07-20T01:45:17;2.45;;;1.33;;
80245;SDS011;69558;39.208;-77.226;2023-07-20T01:47:44;2.90;;;1.80;;
80245;SDS011;69558;39.208;-77.226;2023-07-20T01:50:11;2.90;;;1.38;;
80245;SDS011;69558;39.208;-77.226;2023-07-20T01:52:38;2.83;;;1.50;;
80245;SDS011;69558;39.208;-77.226;2023-07-20T01:55:05;3.25;;;1.27;;
80245;SDS011;69558;39.208;-77.226;2023-07-20T01:57:31;2.05;;;0.90;;
80245;SDS011;69558;39.208;-77.226;2023-07-20T01:59:57;2.38;;;1.58;;
80245;SDS011;69558;39.208;-77.226;2023-07-20T02:02:25;2.22;;;1.40;;
80245;SDS011;69558;39.208;-77.226;2023-07-20T02:04:55;2.55;;;1.38;;
80245;SDS011;69558;39.208;-77.226;2023-07-20T02:07:21;2.78;;;1.58;;
80245;SDS011;69558;39.208;-77.226;2023-07-20T02:09:47;2.67;;;1.48;;
80245;SDS011;69558;39.208;-77.226;2023-07-20T02:12:13;2.40;;;1.52;;
80245;SDS011;69558;39.208;-77.226;2023-07-20T02:14:39;2.42;;;1.27;;
80245;SDS011;69558;39.208;-77.226;2023-07-20T02:17:05;3.03;;;1.42;;
80245;SDS011;69558;39.208;-77.226;2023-07-20T02:19:31;2.40;;;1.10;;
80245;SDS011;69558;39.208;-77.226;2023-07-20T02:21:57;2.50;;;1.00;;
80245;SDS011;69558;39.208;-77.226;2023-07-20T02:24:23;2.40;;;0.90;;
80245;SDS011;69558;39.208;-77.226;2023-07-20T02:29:16;2.60;;;1.17;;
80245;SDS011;69558;39.208;-77.226;2023-07-20T02:31:43;2.00;;;0.98;;
80245;SDS011;69558;39.208;-77.226;2023-07-20T02:34:09;3.03;;;1.60;;
80245;SDS011;69558;39.208;-77.226;2023-07-20T02:36:35;2.58;;;1.17;;
80245;SDS011;69558;39.208;-77.226;2023-07-20T02:39:01;2.70;;;1.30;;
80245;SDS011;69558;39.208;-77.226;2023-07-20T02:41:30;2.55;;;1.50;;
80245;SDS011;69558;39.208;-77.226;2023-07-20T02:43:58;2.65;;;1.17;;
80245;SDS011;69558;39.208;-77.226;2023-07-20T02:46:26;2.97;;;1.40;;
80245;SDS011;69558;39.208;-77.226;2023-07-20T02:48:55;3.38;;;1.42;;
80245;SDS011;69558;39.208;-77.226;2023-07-20T02:51:21;2.33;;;0.98;;
80245;SDS011;69558;39.208;-77.226;2023-07-20T02:53:47;2.20;;;1.15;;
80245;SDS011;69558;39.208;-77.226;2023-07-20T02:56:13;2.67;;;1.40;;
80245;SDS011;69558;39.208;-77.226;2023-07-20T02:58:41;3.10;;;1.27;;
80245;SDS011;69558;39.208;-77.226;2023-07-20T03:01:11;5.30;;;1.27;;
80245;SDS011;69558;39.208;-77.226;2023-07-20T03:03:37;2.38;;;1.17;;
80245;SDS011;69558;39.208;-77.226;2023-07-20T03:06:05;2.55;;;1.48;;
80245;SDS011;69558;39.208;-77.226;2023-07-20T03:08:31;3.00;;;1.60;;
80245;SDS011;69558;39.208;-77.226;2023-07-20T03:10:57;3.03;;;1.48;;
80245;SDS011;69558;39.208;-77.226;2023-07-20T03:13:23;3.03;;;1.67;;
80245;SDS011;69558;39.208;-77.226;2023-07-20T03:15:49;2.58;;;1.23;;
80245;SDS011;69558;39.208;-77.226;2023-07-20T03:18:17;2.58;;;1.35;;
80245;SDS011;69558;39.208;-77.226;2023-07-20T03:20:43;2.75;;;1.17;;
80245;SDS011;69558;39.208;-77.226;2023-07-20T03:23:10;2.70;;;1.25;;
80245;SDS011;69558;39.208;-77.226;2023-07-20T03:25:36;2.92;;;1.60;;
80245;SDS011;69558;39.208;-77.226;2023-07-20T03:28:02;3.33;;;1.13;;
80245;SDS011;69558;39.208;-77.226;2023-07-20T03:30:29;3.17;;;1.27;;
80245;SDS011;69558;39.208;-77.226;2023-07-20T03:32:55;2.92;;;1.75;;
80245;SDS011;69558;39.208;-77.226;2023-07-20T03:35:21;2.47;;;1.20;;
80245;SDS011;69558;39.208;-77.226;2023-07-20T03:37:48;3.13;;;1.50;;
80245;SDS011;69558;39.208;-77.226;2023-07-20T03:40:15;3.30;;;1.50;;
80245;SDS011;69558;39.208;-77.226;2023-07-20T03:42:41;3.17;;;1.27;;
80245;SDS011;69558;39.208;-77.226;2023-07-20T03:45:07;2.63;;;1.83;;
80245;SDS011;69558;39.208;-77.226;2023-07-20T03:47:34;3.47;;;1.60;;
80245;SDS011;69558;39.208;-77.226;2023-07-20T03:50:00;2.50;;;1.38;;
80245;SDS011;69558;39.208;-77.226;2023-07-20T03:52:26;2.97;;;1.65;;
80245;SDS011;69558;39.208;-77.226;2023-07-20T03:54:53;3.47;;;1.58;;
80245;SDS011;69558;39.208;-77.226;2023-07-20T03:57:19;2.08;;;1.10;;
80245;SDS011;69558;39.208;-77.226;2023-07-20T03:59:45;2.55;;;1.27;;
80245;SDS011;69558;39.208;-77.226;2023-07-20T04:02:12;2.70;;;1.20;;
80245;SDS011;69558;39.208;-77.226;2023-07-20T04:04:37;3.38;;;1.70;;
80245;SDS011;69558;39.208;-77.226;2023-07-20T04:07:03;2.85;;;1.27;;
80245;SDS011;69558;39.208;-77.226;2023-07-20T04:09:31;3.22;;;1.50;;
80245;SDS011;69558;39.208;-77.226;2023-07-20T04:11:57;3.00;;;1.58;;
80245;SDS011;69558;39.208;-77.226;2023-07-20T04:14:23;2.60;;;1.63;;
80245;SDS011;69558;39.208;-77.226;2023-07-20T04:16:49;3.15;;;2.17;;
80245;SDS011;69558;39.208;-77.226;2023-07-20T04:19:18;3.45;;;1.58;;
80245;SDS011;69558;39.208;-77.226;2023-07-20T04:21:48;2.72;;;1.25;;
80245;SDS011;69558;39.208;-77.226;2023-07-20T04:24:14;2.35;;;1.10;;
80245;SDS011;69558;39.208;-77.226;2023-07-20T04:26:40;3.33;;;1.63;;
80245;SDS011;69558;39.208;-77.226;2023-07-20T04:29:06;3.83;;;1.38;;
80245;SDS011;69558;39.208;-77.226;2023-07-20T04:31:33;2.97;;;1.48;;
80245;SDS011;69558;39.208;-77.226;2023-07-20T04:33:59;3.45;;;1.90;;
80245;SDS011;69558;39.208;-77.226;2023-07-20T04:36:25;3.10;;;1.58;;
80245;SDS011;69558;39.208;-77.226;2023-07-20T04:38:52;3.50;;;1.48;;
80245;SDS011;69558;39.208;-77.226;2023-07-20T04:41:18;3.72;;;1.85;;
80245;SDS011;69558;39.208;-77.226;2023-07-20T04:43:45;3.03;;;1.90;;
80245;SDS011;69558;39.208;-77.226;2023-07-20T04:46:12;2.90;;;1.52;;
80245;SDS011;69558;39.208;-77.226;2023-07-20T04:48:38;2.90;;;1.00;;
80245;SDS011;69558;39.208;-77.226;2023-07-20T04:51:05;2.72;;;1.33;;
80245;SDS011;69558;39.208;-77.226;2023-07-20T04:53:31;2.47;;;1.25;;
80245;SDS011;69558;39.208;-77.226;2023-07-20T04:55:57;3.53;;;1.60;;
80245;SDS011;69558;39.208;-77.226;2023-07-20T04:58:24;2.38;;;1.05;;
80245;SDS011;69558;39.208;-77.226;2023-07-20T05:00:50;2.75;;;1.27;;
80245;SDS011;69558;39.208;-77.226;2023-07-20T05:03:17;2.95;;;1.38;;
80245;SDS011;69558;39.208;-77.226;2023-07-20T05:05:43;3.05;;;1.50;;
80245;SDS011;69558;39.208;-77.226;2023-07-20T05:08:09;2.95;;;1.13;;
80245;SDS011;69558;39.208;-77.226;2023-07-20T05:10:36;2.75;;;1.67;;
80245;SDS011;69558;39.208;-77.226;2023-07-20T05:15:29;2.92;;;1.55;;
80245;SDS011;69558;39.208;-77.226;2023-07-20T05:17:56;3.05;;;1.48;;
80245;SDS011;69558;39.208;-77.226;2023-07-20T05:20:22;2.85;;;1.50;;
80245;SDS011;69558;39.208;-77.226;2023-07-20T05:22:48;3.17;;;1.30;;
80245;SDS011;69558;39.208;-77.226;2023-07-20T05:25:14;3.13;;;1.67;;
80245;SDS011;69558;39.208;-77.226;2023-07-20T05:27:44;2.83;;;1.67;;
80245;SDS011;69558;39.208;-77.226;2023-07-20T05:30:12;2.72;;;1.30;;
80245;SDS011;69558;39.208;-77.226;2023-07-20T05:32:38;2.67;;;1.15;;
80245;SDS011;69558;39.208;-77.226;2023-07-20T05:35:04;3.03;;;1.27;;
80245;SDS011;69558;39.208;-77.226;2023-07-20T05:37:31;3.20;;;1.48;;
80245;SDS011;69558;39.208;-77.226;2023-07-20T05:39:57;3.17;;;1.77;;
80245;SDS011;69558;39.208;-77.226;2023-07-20T05:42:23;2.40;;;1.38;;
80245;SDS011;69558;39.208;-77.226;2023-07-20T05:44:49;3.05;;;1.85;;
80245;SDS011;69558;39.208;-77.226;2023-07-20T05:47:18;3.90;;;2.35;;
80245;SDS011;69558;39.208;-77.226;2023-07-20T05:49:43;3.53;;;1.60;;
80245;SDS011;69558;39.208;-77.226;2023-07-20T05:52:09;3.75;;;1.80;;
80245;SDS011;69558;39.208;-77.226;2023-07-20T05:54:35;3.55;;;1.60;;
80245;SDS011;69558;39.208;-77.226;2023-07-20T05:57:01;3.60;;;1.70;;
80245;SDS011;69558;39.208;-77.226;2023-07-20T05:59:27;3.55;;;1.92;;
80245;SDS011;69558;39.208;-77.226;2023-07-20T06:01:54;3.83;;;2.28;;
80245;SDS011;69558;39.208;-77.226;2023-07-20T06:04:21;3.65;;;2.13;;
80245;SDS011;69558;39.208;-77.226;2023-07-20T06:06:46;3.40;;;1.80;;
80245;SDS011;69558;39.208;-77.226;2023-07-20T06:09:13;3.25;;;1.65;;
80245;SDS011;69558;39.208;-77.226;2023-07-20T06:11:39;3.08;;;1.77;;
80245;SDS011;69558;39.208;-77.226;2023-07-20T06:14:05;3.70;;;2.13;;
80245;SDS011;69558;39.208;-77.226;2023-07-20T06:16:31;3.60;;;1.52;;
80245;SDS011;69558;39.208;-77.226;2023-07-20T06:18:59;3.63;;;2.33;;
80245;SDS011;69558;39.208;-77.226;2023-07-20T06:21:26;3.53;;;1.55;;
80245;SDS011;69558;39.208;-77.226;2023-07-20T06:23:52;3.50;;;1.75;;
80245;SDS011;69558;39.208;-77.226;2023-07-20T06:26:17;3.65;;;2.03;;
80245;SDS011;69558;39.208;-77.226;2023-07-20T06:28:45;3.40;;;2.00;;
80245;SDS011;69558;39.208;-77.226;2023-07-20T06:31:11;3.03;;;1.63;;
80245;SDS011;69558;39.208;-77.226;2023-07-20T06:33:37;3.90;;;1.90;;
80245;SDS011;69558;39.208;-77.226;2023-07-20T06:36:03;4.43;;;2.67;;
80245;SDS011;69558;39.208;-77.226;2023-07-20T06:38:29;4.10;;;2.20;;
80245;SDS011;69558;39.208;-77.226;2023-07-20T06:40:55;2.75;;;1.42;;
80245;SDS011;69558;39.208;-77.226;2023-07-20T06:43:21;2.67;;;1.17;;
80245;SDS011;69558;39.208;-77.226;2023-07-20T06:45:53;3.15;;;1.67;;
80245;SDS011;69558;39.208;-77.226;2023-07-20T06:48:20;4.05;;;2.33;;
80245;SDS011;69558;39.208;-77.226;2023-07-20T06:50:46;3.25;;;1.60;;
80245;SDS011;69558;39.208;-77.226;2023-07-20T06:53:13;4.45;;;1.90;;
80245;SDS011;69558;39.208;-77.226;2023-07-20T06:55:41;4.32;;;2.10;;
80245;SDS011;69558;39.208;-77.226;2023-07-20T06:58:07;3.97;;;2.55;;
80245;SDS011;69558;39.208;-77.226;2023-07-20T07:00:33;3.40;;;2.28;;
80245;SDS011;69558;39.208;-77.226;2023-07-20T07:02:59;3.75;;;1.70;;
80245;SDS011;69558;39.208;-77.226;2023-07-20T07:05:26;3.53;;;1.90;;
80245;SDS011;69558;39.208;-77.226;2023-07-20T07:07:52;4.57;;;2.42;;
80245;SDS011;69558;39.208;-77.226;2023-07-20T07:10:18;4.25;;;2.33;;
80245;SDS011;69558;39.208;-77.226;2023-07-20T07:12:46;5.10;;;2.17;;
80245;SDS011;69558;39.208;-77.226;2023-07-20T07:15:12;4.05;;;2.47;;
80245;SDS011;69558;39.208;-77.226;2023-07-20T07:17:38;3.80;;;2.45;;
80245;SDS011;69558;39.208;-77.226;2023-07-20T07:20:05;4.13;;;2.53;;
80245;SDS011;69558;39.208;-77.226;2023-07-20T07:22:33;3.67;;;1.88;;
80245;SDS011;69558;39.208;-77.226;2023-07-20T07:24:58;4.45;;;2.22;;
80245;SDS011;69558;39.208;-77.226;2023-07-20T07:27:25;4.50;;;1.83;;
80245;SDS011;69558;39.208;-77.226;2023-07-20T07:29:51;4.20;;;2.72;;
80245;SDS011;69558;39.208;-77.226;2023-07-20T07:32:17;5.07;;;2.72;;
80245;SDS011;69558;39.208;-77.226;2023-07-20T07:34:44;3.40;;;1.75;;
80245;SDS011;69558;39.208;-77.226;2023-07-20T07:37:11;3.72;;;2.10;;
80245;SDS011;69558;39.208;-77.226;2023-07-20T07:39:38;3.72;;;1.88;;
80245;SDS011;69558;39.208;-77.226;2023-07-20T07:42:05;4.57;;;2.38;;
80245;SDS011;69558;39.208;-77.226;2023-07-20T07:44:31;4.25;;;2.55;;
80245;SDS011;69558;39.208;-77.226;2023-07-20T07:46:57;3.97;;;2.25;;
80245;SDS011;69558;39.208;-77.226;2023-07-20T07:49:23;3.80;;;2.17;;
80245;SDS011;69558;39.208;-77.226;2023-07-20T07:51:50;5.38;;;2.40;;
80245;SDS011;69558;39.208;-77.226;2023-07-20T07:54:16;4.55;;;2.60;;
80245;SDS011;69558;39.208;-77.226;2023-07-20T07:56:41;4.28;;;2.35;;
80245;SDS011;69558;39.208;-77.226;2023-07-20T07:59:09;3.97;;;1.88;;
80245;SDS011;69558;39.208;-77.226;2023-07-20T08:01:35;4.57;;;2.83;;
80245;SDS011;69558;39.208;-77.226;2023-07-20T08:04:02;4.40;;;2.30;;
80245;SDS011;69558;39.208;-77.226;2023-07-20T08:06:29;4.05;;;2.10;;
80245;SDS011;69558;39.208;-77.226;2023-07-20T08:08:56;4.60;;;2.88;;
80245;SDS011;69558;39.208;-77.226;2023-07-20T08:11:23;3.75;;;1.98;;
80245;SDS011;69558;39.208;-77.226;2023-07-20T08:16:15;3.78;;;1.90;;
80245;SDS011;69558;39.208;-77.226;2023-07-20T08:18:42;4.47;;;2.55;;
80245;SDS011;69558;39.208;-77.226;2023-07-20T08:21:10;4.38;;;2.28;;
80245;SDS011;69558;39.208;-77.226;2023-07-20T08:23:37;5.03;;;2.92;;
80245;SDS011;69558;39.208;-77.226;2023-07-20T08:26:03;4.47;;;2.20;;
80245;SDS011;69558;39.208;-77.226;2023-07-20T08:28:29;4.47;;;1.92;;
80245;SDS011;69558;39.208;-77.226;2023-07-20T08:30:55;4.30;;;2.38;;
80245;SDS011;69558;39.208;-77.226;2023-07-20T08:33:21;5.38;;;2.90;;
80245;SDS011;69558;39.208;-77.226;2023-07-20T08:35:50;4.47;;;2.40;;
80245;SDS011;69558;39.208;-77.226;2023-07-20T08:38:16;4.60;;;2.42;;
80245;SDS011;69558;39.208;-77.226;2023-07-20T08:40:45;4.53;;;2.42;;
80245;SDS011;69558;39.208;-77.226;2023-07-20T08:43:12;4.40;;;2.80;;
80245;SDS011;69558;39.208;-77.226;2023-07-20T08:45:40;4.47;;;2.25;;
80245;SDS011;69558;39.208;-77.226;2023-07-20T08:48:06;5.45;;;2.47;;
80245;SDS011;69558;39.208;-77.226;2023-07-20T08:50:34;4.38;;;2.28;;
80245;SDS011;69558;39.208;-77.226;2023-07-20T08:53:02;4.70;;;2.25;;
80245;SDS011;69558;39.208;-77.226;2023-07-20T08:55:28;4.32;;;2.58;;
80245;SDS011;69558;39.208;-77.226;2023-07-20T08:57:56;4.38;;;2.40;;
80245;SDS011;69558;39.208;-77.226;2023-07-20T09:00:24;4.47;;;2.20;;
80245;SDS011;69558;39.208;-77.226;2023-07-20T09:02:55;4.75;;;2.45;;
80245;SDS011;69558;39.208;-77.226;2023-07-20T09:05:23;4.25;;;2.42;;
80245;SDS011;69558;39.208;-77.226;2023-07-20T09:07:51;4.40;;;2.40;;
80245;SDS011;69558;39.208;-77.226;2023-07-20T09:10:19;4.55;;;2.58;;
80245;SDS011;69558;39.208;-77.226;2023-07-20T09:12:47;4.75;;;2.85;;
80245;SDS011;69558;39.208;-77.226;2023-07-20T09:15:14;4.45;;;2.65;;
80245;SDS011;69558;39.208;-77.226;2023-07-20T09:17:45;5.18;;;2.58;;
80245;SDS011;69558;39.208;-77.226;2023-07-20T09:20:16;5.93;;;2.72;;
80245;SDS011;69558;39.208;-77.226;2023-07-20T09:22:44;5.43;;;2.53;;
80245;SDS011;69558;39.208;-77.226;2023-07-20T09:25:14;3.92;;;2.00;;
80245;SDS011;69558;39.208;-77.226;2023-07-20T09:27:48;5.57;;;2.45;;
80245;SDS011;69558;39.208;-77.226;2023-07-20T09:30:15;4.63;;;3.25;;
80245;SDS011;69558;39.208;-77.226;2023-07-20T09:37:41;4.78;;;2.47;;
80245;SDS011;69558;39.208;-77.226;2023-07-20T09:40:23;5.07;;;3.03;;
80245;SDS011;69558;39.208;-77.226;2023-07-20T09:42:51;5.10;;;2.95;;
80245;SDS011;69558;39.208;-77.226;2023-07-20T09:45:28;5.00;;;2.72;;
80245;SDS011;69558;39.208;-77.226;2023-07-20T09:48:05;5.18;;;3.10;;
80245;SDS011;69558;39.208;-77.226;2023-07-20T09:50:48;4.70;;;2.95;;
80245;SDS011;69558;39.208;-77.226;2023-07-20T09:53:18;4.75;;;2.55;;
80245;SDS011;69558;39.208;-77.226;2023-07-20T09:55:47;5.28;;;2.83;;
80245;SDS011;69558;39.208;-77.226;2023-07-20T10:00:42;4.22;;;2.67;;
80245;SDS011;69558;39.208;-77.226;2023-07-20T10:03:14;4.75;;;2.80;;
80245;SDS011;69558;39.208;-77.226;2023-07-20T10:05:47;5.75;;;2.90;;
80245;SDS011;69558;39.208;-77.226;2023-07-20T10:08:22;4.72;;;2.53;;
80245;SDS011;69558;39.208;-77.226;2023-07-20T10:10:50;4.43;;;2.40;;
80245;SDS011;69558;39.208;-77.226;2023-07-20T10:13:18;4.65;;;3.13;;
80245;SDS011;69558;39.208;-77.226;2023-07-20T10:15:50;5.03;;;2.60;;
80245;SDS011;69558;39.208;-77.226;2023-07-20T10:18:25;5.57;;;3.47;;
80245;SDS011;69558;39.208;-77.226;2023-07-20T10:21:00;5.10;;;3.15;;
80245;SDS011;69558;39.208;-77.226;2023-07-20T10:23:31;5.18;;;3.20;;
80245;SDS011;69558;39.208;-77.226;2023-07-20T10:25:58;4.78;;;3.35;;
80245;SDS011;69558;39.208;-77.226;2023-07-20T10:28:25;5.03;;;2.72;;
80245;SDS011;69558;39.208;-77.226;2023-07-20T10:30:52;4.50;;;2.60;;
80245;SDS011;69558;39.208;-77.226;2023-07-20T10:33:18;6.25;;;2.70;;
80245;SDS011;69558;39.208;-77.226;2023-07-20T10:41:21;4.25;;;2.38;;
80245;SDS011;69558;39.208;-77.226;2023-07-20T10:43:51;5.55;;;2.53;;
80245;SDS011;69558;39.208;-77.226;2023-07-20T10:49:04;4.80;;;2.72;;
80245;SDS011;69558;39.208;-77.226;2023-07-20T10:51:45;5.18;;;3.20;;
80245;SDS011;69558;39.208;-77.226;2023-07-20T10:56:43;4.60;;;2.80;;
80245;SDS011;69558;39.208;-77.226;2023-07-20T11:01:59;5.30;;;3.30;;
80245;SDS011;69558;39.208;-77.226;2023-07-20T11:04:38;4.43;;;2.80;;
80245;SDS011;69558;39.208;-77.226;2023-07-20T11:07:05;4.70;;;3.15;;
80245;SDS011;69558;39.208;-77.226;2023-07-20T11:09:35;4.93;;;2.83;;
80245;SDS011;69558;39.208;-77.226;2023-07-20T11:12:12;4.95;;;3.25;;
80245;SDS011;69558;39.208;-77.226;2023-07-20T11:14:42;4.60;;;2.42;;
80245;SDS011;69558;39.208;-77.226;2023-07-20T11:17:13;4.90;;;3.25;;
80245;SDS011;69558;39.208;-77.226;2023-07-20T11:19:40;5.53;;;3.30;;
80245;SDS011;69558;39.208;-77.226;2023-07-20T11:22:06;4.43;;;2.90;;
80245;SDS011;69558;39.208;-77.226;2023-07-20T11:24:34;5.40;;;3.42;;
80245;SDS011;69558;39.208;-77.226;2023-07-20T11:27:03;4.63;;;2.47;;
80245;SDS011;69558;39.208;-77.226;2023-07-20T11:29:29;5.10;;;3.40;;
80245;SDS011;69558;39.208;-77.226;2023-07-20T11:31:56;5.22;;;3.28;;
80245;SDS011;69558;39.208;-77.226;2023-07-20T11:34:23;4.72;;;2.83;;
80245;SDS011;69558;39.208;-77.226;2023-07-20T11:36:50;4.88;;;2.80;;
80245;SDS011;69558;39.208;-77.226;2023-07-20T11:39:18;4.95;;;3.40;;
80245;SDS011;69558;39.208;-77.226;2023-07-20T11:41:51;4.93;;;2.67;;
80245;SDS011;69558;39.208;-77.226;2023-07-20T11:44:19;4.30;;;2.40;;
80245;SDS011;69558;39.208;-77.226;2023-07-20T11:47:09;4.50;;;2.67;;
80245;SDS011;69558;39.208;-77.226;2023-07-20T11:49:38;4.90;;;2.67;;
80245;SDS011;69558;39.208;-77.226;2023-07-20T11:52:09;5.50;;;2.88;;
80245;SDS011;69558;39.208;-77.226;2023-07-20T11:54:37;4.90;;;3.00;;
80245;SDS011;69558;39.208;-77.226;2023-07-20T11:57:05;5.55;;;3.20;;
80245;SDS011;69558;39.208;-77.226;2023-07-20T11:59:32;5.20;;;2.75;;
80245;SDS011;69558;39.208;-77.226;2023-07-20T12:02:01;5.00;;;2.53;;
80245;SDS011;69558;39.208;-77.226;2023-07-20T12:04:31;4.95;;;2.83;;
80245;SDS011;69558;39.208;-77.226;2023-07-20T12:06:58;4.63;;;2.88;;
80245;SDS011;69558;39.208;-77.226;2023-07-20T12:09:24;5.70;;;2.90;;
80245;SDS011;69558;39.208;-77.226;2023-07-20T12:11:50;4.93;;;2.90;;
80245;SDS011;69558;39.208;-77.226;2023-07-20T12:14:17;5.47;;;3.28;;
80245;SDS011;69558;39.208;-77.226;2023-07-20T12:16:42;5.43;;;3.15;;
80245;SDS011;69558;39.208;-77.226;2023-07-20T12:19:10;5.32;;;3.17;;
80245;SDS011;69558;39.208;-77.226;2023-07-20T12:21:38;4.90;;;2.90;;
80245;SDS011;69558;39.208;-77.226;2023-07-20T12:24:06;5.45;;;2.70;;
80245;SDS011;69558;39.208;-77.226;2023-07-20T12:26:36;5.00;;;3.08;;
80245;SDS011;69558;39.208;-77.226;2023-07-20T12:29:03;5.88;;;3.83;;
80245;SDS011;69558;39.208;-77.226;2023-07-20T12:31:34;5.68;;;3.67;;
80245;SDS011;69558;39.208;-77.226;2023-07-20T12:34:02;4.78;;;2.55;;
80245;SDS011;69558;39.208;-77.226;2023-07-20T12:36:29;4.85;;;2.80;;
80245;SDS011;69558;39.208;-77.226;2023-07-20T12:38:56;4.70;;;2.92;;
80245;SDS011;69558;39.208;-77.226;2023-07-20T12:41:22;5.85;;;3.20;;
80245;SDS011;69558;39.208;-77.226;2023-07-20T12:43:48;4.95;;;2.78;;
80245;SDS011;69558;39.208;-77.226;2023-07-20T12:51:09;5.30;;;3.05;;
80245;SDS011;69558;39.208;-77.226;2023-07-20T12:53:36;5.25;;;2.90;;
80245;SDS011;69558;39.208;-77.226;2023-07-20T12:56:02;4.80;;;2.58;;
80245;SDS011;69558;39.208;-77.226;2023-07-20T12:58:28;5.07;;;2.78;;
80245;SDS011;69558;39.208;-77.226;2023-07-20T13:00:54;4.38;;;2.55;;
80245;SDS011;69558;39.208;-77.226;2023-07-20T13:03:21;4.85;;;2.63;;
80245;SDS011;69558;39.208;-77.226;2023-07-20T13:05:49;4.57;;;2.45;;
80245;SDS011;69558;39.208;-77.226;2023-07-20T13:08:19;4.57;;;2.47;;
80245;SDS011;69558;39.208;-77.226;2023-07-20T13:13:30;4.75;;;2.47;;
80245;SDS011;69558;39.208;-77.226;2023-07-20T13:15:56;4.25;;;2.35;;
80245;SDS011;69558;39.208;-77.226;2023-07-20T13:18:22;4.35;;;2.47;;
80245;SDS011;69558;39.208;-77.226;2023-07-20T13:20:48;4.80;;;2.72;;
80245;SDS011;69558;39.208;-77.226;2023-07-20T13:23:14;4.60;;;2.80;;
80245;SDS011;69558;39.208;-77.226;2023-07-20T13:25:40;4.15;;;2.70;;
80245;SDS011;69558;39.208;-77.226;2023-07-20T13:28:07;4.68;;;2.10;;
80245;SDS011;69558;39.208;-77.226;2023-07-20T13:30:34;3.85;;;2.38;;
80245;SDS011;69558;39.208;-77.226;2023-07-20T13:33:00;4.40;;;2.72;;
80245;SDS011;69558;39.208;-77.226;2023-07-20T13:35:25;4.05;;;2.60;;
80245;SDS011;69558;39.208;-77.226;2023-07-20T13:37:51;4.22;;;2.67;;
80245;SDS011;69558;39.208;-77.226;2023-07-20T13:40:17;4.15;;;2.70;;
80245;SDS011;69558;39.208;-77.226;2023-07-20T13:42:45;4.60;;;2.92;;
80245;SDS011;69558;39.208;-77.226;2023-07-20T13:45:12;5.07;;;2.88;;
80245;SDS011;69558;39.208;-77.226;2023-07-20T13:47:38;4.80;;;2.92;;
80245;SDS011;69558;39.208;-77.226;2023-07-20T13:50:04;4.80;;;2.88;;
80245;SDS011;69558;39.208;-77.226;2023-07-20T13:52:31;4.05;;;2.35;;
80245;SDS011;69558;39.208;-77.226;2023-07-20T13:54:57;4.03;;;2.17;;
80245;SDS011;69558;39.208;-77.226;2023-07-20T13:57:23;3.17;;;1.60;;
80245;SDS011;69558;39.208;-77.226;2023-07-20T13:59:50;4.47;;;2.72;;
80245;SDS011;69558;39.208;-77.226;2023-07-20T14:02:16;4.63;;;2.85;;
80245;SDS011;69558;39.208;-77.226;2023-07-20T14:04:42;4.28;;;2.40;;
80245;SDS011;69558;39.208;-77.226;2023-07-20T14:07:08;4.43;;;2.13;;
80245;SDS011;69558;39.208;-77.226;2023-07-20T14:09:34;4.65;;;2.72;;
80245;SDS011;69558;39.208;-77.226;2023-07-20T14:12:00;3.58;;;1.88;;
80245;SDS011;69558;39.208;-77.226;2023-07-20T14:14:26;3.90;;;2.30;;
80245;SDS011;69558;39.208;-77.226;2023-07-20T14:16:52;3.95;;;2.17;;
80245;SDS011;69558;39.208;-77.226;2023-07-20T14:19:18;4.00;;;2.67;;
80245;SDS011;69558;39.208;-77.226;2023-07-20T14:21:44;4.13;;;2.10;;
80245;SDS011;69558;39.208;-77.226;2023-07-20T14:24:10;4.20;;;2.30;;
80245;SDS011;69558;39.208;-77.226;2023-07-20T14:26:37;4.65;;;2.67;;
80245;SDS011;69558;39.208;-77.226;2023-07-20T14:29:03;4.55;;;2.30;;
80245;SDS011;69558;39.208;-77.226;2023-07-20T14:31:29;4.68;;;2.97;;
80245;SDS011;69558;39.208;-77.226;2023-07-20T14:33:56;5.05;;;2.70;;
80245;SDS011;69558;39.208;-77.226;2023-07-20T14:36:22;4.82;;;2.97;;
80245;SDS011;69558;39.208;-77.226;2023-07-20T14:38:48;3.80;;;2.05;;
80245;SDS011;69558;39.208;-77.226;2023-07-20T14:41:14;4.25;;;2.20;;
80245;SDS011;69558;39.208;-77.226;2023-07-20T14:43:41;4.18;;;2.17;;
80245;SDS011;69558;39.208;-77.226;2023-07-20T14:46:06;3.92;;;2.50;;
80245;SDS011;69558;39.208;-77.226;2023-07-20T14:48:33;4.45;;;2.67;;
80245;SDS011;69558;39.208;-77.226;2023-07-20T14:50:59;4.43;;;2.30;;
80245;SDS011;69558;39.208;-77.226;2023-07-20T14:53:25;4.97;;;3.00;;
80245;SDS011;69558;39.208;-77.226;2023-07-20T14:55:58;5.45;;;3.35;;
80245;SDS011;69558;39.208;-77.226;2023-07-20T14:58:25;4.32;;;2.22;;
80245;SDS011;69558;39.208;-77.226;2023-07-20T15:00:51;4.38;;;2.35;;
80245;SDS011;69558;39.208;-77.226;2023-07-20T15:03:17;4.25;;;2.25;;
80245;SDS011;69558;39.208;-77.226;2023-07-20T15:05:43;4.63;;;2.78;;
80245;SDS011;69558;39.208;-77.226;2023-07-20T15:08:09;4.15;;;1.90;;
80245;SDS011;69558;39.208;-77.226;2023-07-20T15:10:36;4.45;;;2.63;;